Hilliard, Ohio
Current Conditions -  °F | °C
As of 9:16 AM on Thursday 29 Jan 2015 (Local Time) from KOSU Reporting Station
Freezing Rain Freezing Rain  
Wind Chill: 24°   Ceiling: 5500
Heat Index: 33°   Visibility: 8mi
Dew Point: 26°   Wind: 13mph
Humidity: 75%   Direction: 170°S
Pressure: 29.87"   Gusts: 24mph
Location:  40.03°N, 83.15°W
Report Text: KOSU 291416Z 17011G21KT 8SM -FZRA OVC055 01/M03 A2987 RMK AO2 RAB09E10FZRAB10 P0000 I1001 T00061033
Loading
Personal Weather Stations






























Interactive Weather Map New forecast layout! Learn more

10-Day Weather Forecast

Advertisements
Track Severe Weather on mobile